sensor_id;sensor_type;location;lat;lon;timestamp;P1;P2;P0
45440;PMS5003;31189;38.790;-77.084;2023-09-19T00:03:01;11;10;
45440;PMS5003;31189;38.790;-77.084;2023-09-19T00:05:33;13;13;
45440;PMS5003;31189;38.790;-77.084;2023-09-19T00:07:57;13;12;
45440;PMS5003;31189;38.790;-77.084;2023-09-19T00:10:17;12;12;
45440;PMS5003;31189;38.790;-77.084;2023-09-19T00:12:48;12;12;
45440;PMS5003;31189;38.790;-77.084;2023-09-19T00:15:14;13;10;
45440;PMS5003;31189;38.790;-77.084;2023-09-19T00:20:05;15;14;
45440;PMS5003;31189;38.790;-77.084;2023-09-19T00:22:30;13;13;
45440;PMS5003;31189;38.790;-77.084;2023-09-19T00:24:50;24;17;
45440;PMS5003;31189;38.790;-77.084;2023-09-19T00:27:21;13;12;
45440;PMS5003;31189;38.790;-77.084;2023-09-19T00:29:42;14;14;
45440;PMS5003;31189;38.790;-77.084;2023-09-19T00:34:38;12;11;
45440;PMS5003;31189;38.790;-77.084;2023-09-19T00:37:04;10;10;
45440;PMS5003;31189;38.790;-77.084;2023-09-19T00:41:50;12;12;
45440;PMS5003;31189;38.790;-77.084;2023-09-19T00:44:21;14;12;
45440;PMS5003;31189;38.790;-77.084;2023-09-19T00:46:40;14;11;
45440;PMS5003;31189;38.790;-77.084;2023-09-19T00:49:07;12;12;
45440;PMS5003;31189;38.790;-77.084;2023-09-19T00:51:37;15;13;
45440;PMS5003;31189;38.790;-77.084;2023-09-19T00:56:23;12;12;
45440;PMS5003;31189;38.790;-77.084;2023-09-19T00:58:48;10;10;
45440;PMS5003;31189;38.790;-77.084;2023-09-19T01:01:14;10;9;
45440;PMS5003;31189;38.790;-77.084;2023-09-19T01:03:45;16;13;
45440;PMS5003;31189;38.790;-77.084;2023-09-19T01:06:05;12;11;
45440;PMS5003;31189;38.790;-77.084;2023-09-19T01:08:36;13;12;
45440;PMS5003;31189;38.790;-77.084;2023-09-19T01:11:06;12;9;
45440;PMS5003;31189;38.790;-77.084;2023-09-19T01:13:30;12;12;
45440;PMS5003;31189;38.790;-77.084;2023-09-19T01:15:50;17;14;
45440;PMS5003;31189;38.790;-77.084;2023-09-19T01:18:16;13;10;
45440;PMS5003;31189;38.790;-77.084;2023-09-19T01:20:45;12;12;
45440;PMS5003;31189;38.790;-77.084;2023-09-19T01:23:10;12;12;
45440;PMS5003;31189;38.790;-77.084;2023-09-19T01:30:27;14;12;
45440;PMS5003;31189;38.790;-77.084;2023-09-19T01:35:18;11;11;
45440;PMS5003;31189;38.790;-77.084;2023-09-19T01:37:43;12;12;
45440;PMS5003;31189;38.790;-77.084;2023-09-19T01:40:04;13;12;
45440;PMS5003;31189;38.790;-77.084;2023-09-19T01:42:35;13;12;
45440;PMS5003;31189;38.790;-77.084;2023-09-19T01:44:55;16;12;
45440;PMS5003;31189;38.790;-77.084;2023-09-19T01:49:55;13;12;
45440;PMS5003;31189;38.790;-77.084;2023-09-19T01:52:12;11;11;
45440;PMS5003;31189;38.790;-77.084;2023-09-19T01:54:45;16;14;
45440;PMS5003;31189;38.790;-77.084;2023-09-19T01:57:09;18;13;
45440;PMS5003;31189;38.790;-77.084;2023-09-19T01:59:35;13;11;
45440;PMS5003;31189;38.790;-77.084;2023-09-19T02:04:24;14;11;
45440;PMS5003;31189;38.790;-77.084;2023-09-19T02:06:44;20;12;
45440;PMS5003;31189;38.790;-77.084;2023-09-19T02:09:15;16;14;
45440;PMS5003;31189;38.790;-77.084;2023-09-19T02:11:41;16;12;
45440;PMS5003;31189;38.790;-77.084;2023-09-19T02:14:06;15;13;
45440;PMS5003;31189;38.790;-77.084;2023-09-19T02:16:27;15;14;
45440;PMS5003;31189;38.790;-77.084;2023-09-19T02:18:57;12;12;
45440;PMS5003;31189;38.790;-77.084;2023-09-19T02:21:23;10;10;
45440;PMS5003;31189;38.790;-77.084;2023-09-19T02:23:48;13;12;
45440;PMS5003;31189;38.790;-77.084;2023-09-19T02:26:09;13;11;
45440;PMS5003;31189;38.790;-77.084;2023-09-19T02:28:35;15;13;
45440;PMS5003;31189;38.790;-77.084;2023-09-19T02:31:05;15;13;
45440;PMS5003;31189;38.790;-77.084;2023-09-19T02:33:26;13;12;
45440;PMS5003;31189;38.790;-77.084;2023-09-19T02:35:57;12;12;
45440;PMS5003;31189;38.790;-77.084;2023-09-19T02:38:17;12;12;
45440;PMS5003;31189;38.790;-77.084;2023-09-19T02:40:48;17;14;
45440;PMS5003;31189;38.790;-77.084;2023-09-19T02:43:14;14;14;
45440;PMS5003;31189;38.790;-77.084;2023-09-19T02:45:39;21;14;
45440;PMS5003;31189;38.790;-77.084;2023-09-19T02:48:04;14;13;
45440;PMS5003;31189;38.790;-77.084;2023-09-19T02:50:25;15;13;
45440;PMS5003;31189;38.790;-77.084;2023-09-19T02:52:50;12;12;
45440;PMS5003;31189;38.790;-77.084;2023-09-19T02:55:17;21;13;
45440;PMS5003;31189;38.790;-77.084;2023-09-19T02:57:42;16;14;
45440;PMS5003;31189;38.790;-77.084;2023-09-19T03:00:07;15;13;
45440;PMS5003;31189;38.790;-77.084;2023-09-19T03:02:32;17;12;
45440;PMS5003;31189;38.790;-77.084;2023-09-19T03:04:57;13;13;
45440;PMS5003;31189;38.790;-77.084;2023-09-19T03:07:23;20;13;
45440;PMS5003;31189;38.790;-77.084;2023-09-19T03:09:49;19;11;
45440;PMS5003;31189;38.790;-77.084;2023-09-19T03:12:14;10;10;
45440;PMS5003;31189;38.790;-77.084;2023-09-19T03:14:40;14;14;
45440;PMS5003;31189;38.790;-77.084;2023-09-19T03:17:05;17;13;
45440;PMS5003;31189;38.790;-77.084;2023-09-19T03:19:31;15;13;
45440;PMS5003;31189;38.790;-77.084;2023-09-19T03:21:57;12;12;
45440;PMS5003;31189;38.790;-77.084;2023-09-19T03:24:23;16;11;
45440;PMS5003;31189;38.790;-77.084;2023-09-19T03:26:48;12;11;
45440;PMS5003;31189;38.790;-77.084;2023-09-19T03:29:13;15;13;
45440;PMS5003;31189;38.790;-77.084;2023-09-19T03:31:39;15;12;
45440;PMS5003;31189;38.790;-77.084;2023-09-19T03:34:05;18;14;
45440;PMS5003;31189;38.790;-77.084;2023-09-19T03:36:31;14;14;
45440;PMS5003;31189;38.790;-77.084;2023-09-19T03:38:56;14;13;
45440;PMS5003;31189;38.790;-77.084;2023-09-19T03:41:22;12;12;
45440;PMS5003;31189;38.790;-77.084;2023-09-19T03:43:47;12;11;
45440;PMS5003;31189;38.790;-77.084;2023-09-19T03:46:13;13;11;
45440;PMS5003;31189;38.790;-77.084;2023-09-19T03:48:39;14;12;
45440;PMS5003;31189;38.790;-77.084;2023-09-19T03:51:04;16;12;
45440;PMS5003;31189;38.790;-77.084;2023-09-19T03:53:29;14;12;
45440;PMS5003;31189;38.790;-77.084;2023-09-19T03:55:55;12;12;
45440;PMS5003;31189;38.790;-77.084;2023-09-19T03:58:21;14;14;
45440;PMS5003;31189;38.790;-77.084;2023-09-19T04:00:47;29;13;
45440;PMS5003;31189;38.790;-77.084;2023-09-19T04:03:12;18;14;
45440;PMS5003;31189;38.790;-77.084;2023-09-19T04:05:38;16;13;
45440;PMS5003;31189;38.790;-77.084;2023-09-19T04:08:04;14;13;
45440;PMS5003;31189;38.790;-77.084;2023-09-19T04:10:29;18;15;
45440;PMS5003;31189;38.790;-77.084;2023-09-19T04:12:55;11;9;
45440;PMS5003;31189;38.790;-77.084;2023-09-19T04:15:20;14;13;
45440;PMS5003;31189;38.790;-77.084;2023-09-19T04:17:45;14;12;
45440;PMS5003;31189;38.790;-77.084;2023-09-19T04:20:11;24;14;
45440;PMS5003;31189;38.790;-77.084;2023-09-19T04:22:36;14;13;
45440;PMS5003;31189;38.790;-77.084;2023-09-19T04:25:01;28;15;
45440;PMS5003;31189;38.790;-77.084;2023-09-19T04:27:27;12;12;
45440;PMS5003;31189;38.790;-77.084;2023-09-19T04:29:52;17;13;
45440;PMS5003;31189;38.790;-77.084;2023-09-19T04:32:18;15;13;
45440;PMS5003;31189;38.790;-77.084;2023-09-19T04:34:44;14;12;
45440;PMS5003;31189;38.790;-77.084;2023-09-19T04:37:09;14;12;
45440;PMS5003;31189;38.790;-77.084;2023-09-19T04:39:34;13;12;
45440;PMS5003;31189;38.790;-77.084;2023-09-19T04:42:00;17;13;
45440;PMS5003;31189;38.790;-77.084;2023-09-19T04:44:25;18;16;
45440;PMS5003;31189;38.790;-77.084;2023-09-19T04:46:50;13;12;
45440;PMS5003;31189;38.790;-77.084;2023-09-19T04:49:16;18;16;
45440;PMS5003;31189;38.790;-77.084;2023-09-19T04:51:42;15;14;
45440;PMS5003;31189;38.790;-77.084;2023-09-19T04:54:07;14;14;
45440;PMS5003;31189;38.790;-77.084;2023-09-19T04:56:33;15;15;
45440;PMS5003;31189;38.790;-77.084;2023-09-19T04:58:59;13;12;
45440;PMS5003;31189;38.790;-77.084;2023-09-19T05:01:24;18;15;
45440;PMS5003;31189;38.790;-77.084;2023-09-19T05:03:49;16;12;
45440;PMS5003;31189;38.790;-77.084;2023-09-19T05:06:15;16;16;
45440;PMS5003;31189;38.790;-77.084;2023-09-19T05:08:40;12;12;
45440;PMS5003;31189;38.790;-77.084;2023-09-19T05:11:05;14;14;
45440;PMS5003;31189;38.790;-77.084;2023-09-19T05:13:31;13;13;
45440;PMS5003;31189;38.790;-77.084;2023-09-19T05:15:59;15;14;
45440;PMS5003;31189;38.790;-77.084;2023-09-19T05:18:22;14;13;
45440;PMS5003;31189;38.790;-77.084;2023-09-19T05:20:48;14;12;
45440;PMS5003;31189;38.790;-77.084;2023-09-19T05:23:13;12;12;
45440;PMS5003;31189;38.790;-77.084;2023-09-19T05:25:39;15;12;
45440;PMS5003;31189;38.790;-77.084;2023-09-19T05:28:04;16;16;
45440;PMS5003;31189;38.790;-77.084;2023-09-19T05:30:30;14;14;
45440;PMS5003;31189;38.790;-77.084;2023-09-19T05:32:55;15;14;
45440;PMS5003;31189;38.790;-77.084;2023-09-19T05:35:21;16;14;
45440;PMS5003;31189;38.790;-77.084;2023-09-19T05:37:47;12;11;
45440;PMS5003;31189;38.790;-77.084;2023-09-19T05:40:12;14;14;
45440;PMS5003;31189;38.790;-77.084;2023-09-19T05:42:37;14;14;
45440;PMS5003;31189;38.790;-77.084;2023-09-19T05:45:03;15;15;
45440;PMS5003;31189;38.790;-77.084;2023-09-19T05:47:28;12;11;
45440;PMS5003;31189;38.790;-77.084;2023-09-19T05:49:54;16;12;
45440;PMS5003;31189;38.790;-77.084;2023-09-19T05:52:19;16;15;
45440;PMS5003;31189;38.790;-77.084;2023-09-19T05:54:45;17;15;
45440;PMS5003;31189;38.790;-77.084;2023-09-19T05:57:11;17;15;
45440;PMS5003;31189;38.790;-77.084;2023-09-19T05:59:36;16;13;
45440;PMS5003;31189;38.790;-77.084;2023-09-19T06:02:01;13;12;
45440;PMS5003;31189;38.790;-77.084;2023-09-19T06:04:27;15;14;
45440;PMS5003;31189;38.790;-77.084;2023-09-19T06:06:52;21;13;
45440;PMS5003;31189;38.790;-77.084;2023-09-19T06:09:17;10;10;
45440;PMS5003;31189;38.790;-77.084;2023-09-19T06:11:43;15;12;
45440;PMS5003;31189;38.790;-77.084;2023-09-19T06:14:09;14;11;
45440;PMS5003;31189;38.790;-77.084;2023-09-19T06:16:34;17;14;
45440;PMS5003;31189;38.790;-77.084;2023-09-19T06:19:00;19;16;
45440;PMS5003;31189;38.790;-77.084;2023-09-19T06:21:26;15;13;
45440;PMS5003;31189;38.790;-77.084;2023-09-19T06:23:52;20;16;
45440;PMS5003;31189;38.790;-77.084;2023-09-19T06:26:17;11;11;
45440;PMS5003;31189;38.790;-77.084;2023-09-19T06:28:42;13;11;
45440;PMS5003;31189;38.790;-77.084;2023-09-19T06:31:08;14;13;
45440;PMS5003;31189;38.790;-77.084;2023-09-19T06:33:34;15;12;
45440;PMS5003;31189;38.790;-77.084;2023-09-19T06:35:59;13;12;
45440;PMS5003;31189;38.790;-77.084;2023-09-19T06:38:25;14;11;
45440;PMS5003;31189;38.790;-77.084;2023-09-19T06:40:50;14;13;
45440;PMS5003;31189;38.790;-77.084;2023-09-19T06:43:15;13;12;
45440;PMS5003;31189;38.790;-77.084;2023-09-19T06:45:41;12;12;
45440;PMS5003;31189;38.790;-77.084;2023-09-19T06:48:06;12;11;
45440;PMS5003;31189;38.790;-77.084;2023-09-19T06:50:32;13;13;
45440;PMS5003;31189;38.790;-77.084;2023-09-19T06:52:57;13;12;
45440;PMS5003;31189;38.790;-77.084;2023-09-19T06:55:23;16;15;
45440;PMS5003;31189;38.790;-77.084;2023-09-19T06:57:49;15;13;
45440;PMS5003;31189;38.790;-77.084;2023-09-19T07:00:15;16;14;
45440;PMS5003;31189;38.790;-77.084;2023-09-19T07:02:39;15;13;
45440;PMS5003;31189;38.790;-77.084;2023-09-19T07:05:05;12;12;
45440;PMS5003;31189;38.790;-77.084;2023-09-19T07:07:30;13;12;
45440;PMS5003;31189;38.790;-77.084;2023-09-19T07:09:55;11;11;
45440;PMS5003;31189;38.790;-77.084;2023-09-19T07:12:21;13;13;
45440;PMS5003;31189;38.790;-77.084;2023-09-19T07:14:46;24;13;
45440;PMS5003;31189;38.790;-77.084;2023-09-19T07:17:12;11;10;
45440;PMS5003;31189;38.790;-77.084;2023-09-19T07:19:38;17;15;
45440;PMS5003;31189;38.790;-77.084;2023-09-19T07:22:04;13;10;
45440;PMS5003;31189;38.790;-77.084;2023-09-19T07:24:29;13;13;
45440;PMS5003;31189;38.790;-77.084;2023-09-19T07:26:54;15;14;
45440;PMS5003;31189;38.790;-77.084;2023-09-19T07:29:20;12;11;
45440;PMS5003;31189;38.790;-77.084;2023-09-19T07:31:45;15;12;
45440;PMS5003;31189;38.790;-77.084;2023-09-19T07:34:11;14;12;
45440;PMS5003;31189;38.790;-77.084;2023-09-19T07:36:36;15;14;
45440;PMS5003;31189;38.790;-77.084;2023-09-19T07:39:02;13;13;
45440;PMS5003;31189;38.790;-77.084;2023-09-19T07:41:27;23;12;
45440;PMS5003;31189;38.790;-77.084;2023-09-19T07:43:53;16;12;
45440;PMS5003;31189;38.790;-77.084;2023-09-19T07:46:18;12;12;
45440;PMS5003;31189;38.790;-77.084;2023-09-19T07:48:44;12;12;
45440;PMS5003;31189;38.790;-77.084;2023-09-19T07:51:09;11;10;
45440;PMS5003;31189;38.790;-77.084;2023-09-19T07:53:34;13;13;
45440;PMS5003;31189;38.790;-77.084;2023-09-19T07:56:04;14;13;
45440;PMS5003;31189;38.790;-77.084;2023-09-19T07:58:26;16;14;
45440;PMS5003;31189;38.790;-77.084;2023-09-19T08:00:51;13;13;
45440;PMS5003;31189;38.790;-77.084;2023-09-19T08:03:17;13;9;
45440;PMS5003;31189;38.790;-77.084;2023-09-19T08:05:43;16;14;
45440;PMS5003;31189;38.790;-77.084;2023-09-19T08:08:08;16;15;
45440;PMS5003;31189;38.790;-77.084;2023-09-19T08:10:34;16;14;
45440;PMS5003;31189;38.790;-77.084;2023-09-19T08:12:59;13;13;
45440;PMS5003;31189;38.790;-77.084;2023-09-19T08:15:25;16;13;
45440;PMS5003;31189;38.790;-77.084;2023-09-19T08:17:50;15;12;
45440;PMS5003;31189;38.790;-77.084;2023-09-19T08:20:15;15;12;
45440;PMS5003;31189;38.790;-77.084;2023-09-19T08:22:42;14;13;
45440;PMS5003;31189;38.790;-77.084;2023-09-19T08:25:06;13;13;
45440;PMS5003;31189;38.790;-77.084;2023-09-19T08:27:31;20;12;
45440;PMS5003;31189;38.790;-77.084;2023-09-19T08:29:57;12;12;
45440;PMS5003;31189;38.790;-77.084;2023-09-19T08:32:23;13;12;
45440;PMS5003;31189;38.790;-77.084;2023-09-19T08:34:48;12;12;
45440;PMS5003;31189;38.790;-77.084;2023-09-19T08:37:14;11;11;
45440;PMS5003;31189;38.790;-77.084;2023-09-19T08:39:39;17;13;
45440;PMS5003;31189;38.790;-77.084;2023-09-19T08:42:05;15;12;
45440;PMS5003;31189;38.790;-77.084;2023-09-19T08:44:31;13;13;
45440;PMS5003;31189;38.790;-77.084;2023-09-19T08:46:59;18;13;
45440;PMS5003;31189;38.790;-77.084;2023-09-19T08:49:24;14;14;
45440;PMS5003;31189;38.790;-77.084;2023-09-19T08:51:47;10;10;
45440;PMS5003;31189;38.790;-77.084;2023-09-19T08:54:17;17;14;
45440;PMS5003;31189;38.790;-77.084;2023-09-19T08:56:39;17;12;
45440;PMS5003;31189;38.790;-77.084;2023-09-19T08:59:05;18;13;
45440;PMS5003;31189;38.790;-77.084;2023-09-19T09:01:30;16;13;
45440;PMS5003;31189;38.790;-77.084;2023-09-19T09:03:56;11;11;
45440;PMS5003;31189;38.790;-77.084;2023-09-19T09:06:21;14;13;
45440;PMS5003;31189;38.790;-77.084;2023-09-19T09:08:46;16;12;
45440;PMS5003;31189;38.790;-77.084;2023-09-19T09:11:12;12;12;
45440;PMS5003;31189;38.790;-77.084;2023-09-19T09:13:37;13;13;
45440;PMS5003;31189;38.790;-77.084;2023-09-19T09:16:03;12;11;
45440;PMS5003;31189;38.790;-77.084;2023-09-19T09:18:29;14;12;
45440;PMS5003;31189;38.790;-77.084;2023-09-19T09:20:54;16;14;
45440;PMS5003;31189;38.790;-77.084;2023-09-19T09:23:20;12;12;
45440;PMS5003;31189;38.790;-77.084;2023-09-19T09:25:47;13;12;
45440;PMS5003;31189;38.790;-77.084;2023-09-19T09:28:11;17;12;
45440;PMS5003;31189;38.790;-77.084;2023-09-19T09:30:37;11;11;
45440;PMS5003;31189;38.790;-77.084;2023-09-19T09:33:08;16;14;
45440;PMS5003;31189;38.790;-77.084;2023-09-19T09:35:28;15;13;
45440;PMS5003;31189;38.790;-77.084;2023-09-19T09:40:19;16;15;
45440;PMS5003;31189;38.790;-77.084;2023-09-19T09:42:45;16;13;
45440;PMS5003;31189;38.790;-77.084;2023-09-19T09:45:15;10;10;
45440;PMS5003;31189;38.790;-77.084;2023-09-19T09:50:01;13;13;
45440;PMS5003;31189;38.790;-77.084;2023-09-19T09:52:27;14;11;
45440;PMS5003;31189;38.790;-77.084;2023-09-19T09:54:59;11;11;
45440;PMS5003;31189;38.790;-77.084;2023-09-19T09:57:18;13;12;
45440;PMS5003;31189;38.790;-77.084;2023-09-19T09:59:44;11;11;
45440;PMS5003;31189;38.790;-77.084;2023-09-19T10:02:09;12;11;
45440;PMS5003;31189;38.790;-77.084;2023-09-19T10:04:34;23;10;
45440;PMS5003;31189;38.790;-77.084;2023-09-19T10:07:00;13;13;
45440;PMS5003;31189;38.790;-77.084;2023-09-19T10:09:25;13;12;
45440;PMS5003;31189;38.790;-77.084;2023-09-19T10:11:59;16;13;
45440;PMS5003;31189;38.790;-77.084;2023-09-19T10:14:16;12;12;
45440;PMS5003;31189;38.790;-77.084;2023-09-19T10:16:45;17;14;
45440;PMS5003;31189;38.790;-77.084;2023-09-19T10:19:07;14;13;
45440;PMS5003;31189;38.790;-77.084;2023-09-19T10:21:33;17;14;
45440;PMS5003;31189;38.790;-77.084;2023-09-19T10:23:59;15;12;
45440;PMS5003;31189;38.790;-77.084;2023-09-19T10:26:25;13;11;
45440;PMS5003;31189;38.790;-77.084;2023-09-19T10:28:50;15;13;
45440;PMS5003;31189;38.790;-77.084;2023-09-19T10:31:17;14;12;
45440;PMS5003;31189;38.790;-77.084;2023-09-19T10:33:41;20;13;
45440;PMS5003;31189;38.790;-77.084;2023-09-19T10:36:07;13;13;
45440;PMS5003;31189;38.790;-77.084;2023-09-19T10:38:32;14;13;
45440;PMS5003;31189;38.790;-77.084;2023-09-19T10:40:58;10;10;
45440;PMS5003;31189;38.790;-77.084;2023-09-19T10:43:25;13;13;
45440;PMS5003;31189;38.790;-77.084;2023-09-19T10:45:50;13;13;
45440;PMS5003;31189;38.790;-77.084;2023-09-19T10:48:15;11;11;
45440;PMS5003;31189;38.790;-77.084;2023-09-19T10:50:43;12;12;
45440;PMS5003;31189;38.790;-77.084;2023-09-19T10:53:06;10;10;
45440;PMS5003;31189;38.790;-77.084;2023-09-19T10:55:32;14;13;
45440;PMS5003;31189;38.790;-77.084;2023-09-19T10:57:58;16;10;
45440;PMS5003;31189;38.790;-77.084;2023-09-19T11:00:23;20;13;
45440;PMS5003;31189;38.790;-77.084;2023-09-19T11:05:14;12;12;
45440;PMS5003;31189;38.790;-77.084;2023-09-19T11:10:05;28;15;
45440;PMS5003;31189;38.790;-77.084;2023-09-19T11:14:56;12;11;
45440;PMS5003;31189;38.790;-77.084;2023-09-19T11:22:13;14;12;
45440;PMS5003;31189;38.790;-77.084;2023-09-19T11:24:39;12;11;
45440;PMS5003;31189;38.790;-77.084;2023-09-19T11:27:10;16;13;
45440;PMS5003;31189;38.790;-77.084;2023-09-19T11:29:30;13;12;
45440;PMS5003;31189;38.790;-77.084;2023-09-19T11:31:55;10;9;
45440;PMS5003;31189;38.790;-77.084;2023-09-19T11:36:45;23;11;
45440;PMS5003;31189;38.790;-77.084;2023-09-19T11:41:36;12;11;
45440;PMS5003;31189;38.790;-77.084;2023-09-19T11:46:28;12;12;
45440;PMS5003;31189;38.790;-77.084;2023-09-19T11:48:53;14;12;
45440;PMS5003;31189;38.790;-77.084;2023-09-19T11:51:19;12;10;
45440;PMS5003;31189;38.790;-77.084;2023-09-19T11:53:45;11;11;
45440;PMS5003;31189;38.790;-77.084;2023-09-19T11:56:10;11;11;
45440;PMS5003;31189;38.790;-77.084;2023-09-19T11:58:36;14;13;
45440;PMS5003;31189;38.790;-77.084;2023-09-19T12:01:01;18;9;
45440;PMS5003;31189;38.790;-77.084;2023-09-19T12:03:28;10;8;
45440;PMS5003;31189;38.790;-77.084;2023-09-19T12:05:52;15;12;
45440;PMS5003;31189;38.790;-77.084;2023-09-19T12:08:18;13;11;
45440;PMS5003;31189;38.790;-77.084;2023-09-19T12:10:45;20;13;
45440;PMS5003;31189;38.790;-77.084;2023-09-19T12:13:08;14;11;
45440;PMS5003;31189;38.790;-77.084;2023-09-19T12:15:34;9;9;
45440;PMS5003;31189;38.790;-77.084;2023-09-19T12:17:59;11;10;
45440;PMS5003;31189;38.790;-77.084;2023-09-19T12:20:25;11;11;
45440;PMS5003;31189;38.790;-77.084;2023-09-19T12:22:51;12;12;
45440;PMS5003;31189;38.790;-77.084;2023-09-19T12:25:16;11;9;
45440;PMS5003;31189;38.790;-77.084;2023-09-19T12:27:42;13;12;
45440;PMS5003;31189;38.790;-77.084;2023-09-19T12:30:07;9;9;
45440;PMS5003;31189;38.790;-77.084;2023-09-19T12:32:35;14;9;
45440;PMS5003;31189;38.790;-77.084;2023-09-19T12:34:57;12;9;
45440;PMS5003;31189;38.790;-77.084;2023-09-19T12:37:23;10;9;
45440;PMS5003;31189;38.790;-77.084;2023-09-19T12:39:49;13;10;
45440;PMS5003;31189;38.790;-77.084;2023-09-19T12:42:14;11;10;
45440;PMS5003;31189;38.790;-77.084;2023-09-19T12:44:40;14;14;
45440;PMS5003;31189;38.790;-77.084;2023-09-19T12:47:10;18;10;
45440;PMS5003;31189;38.790;-77.084;2023-09-19T12:49:30;11;11;
45440;PMS5003;31189;38.790;-77.084;2023-09-19T12:51:56;12;11;
45440;PMS5003;31189;38.790;-77.084;2023-09-19T12:54:21;10;8;
45440;PMS5003;31189;38.790;-77.084;2023-09-19T12:56:47;10;10;
45440;PMS5003;31189;38.790;-77.084;2023-09-19T12:59:13;14;9;
45440;PMS5003;31189;38.790;-77.084;2023-09-19T13:01:38;8;8;
45440;PMS5003;31189;38.790;-77.084;2023-09-19T13:04:11;10;8;
45440;PMS5003;31189;38.790;-77.084;2023-09-19T13:11:21;11;10;
45440;PMS5003;31189;38.790;-77.084;2023-09-19T13:13:47;12;10;
45440;PMS5003;31189;38.790;-77.084;2023-09-19T13:16:12;10;9;
45440;PMS5003;31189;38.790;-77.084;2023-09-19T13:18:45;12;8;
45440;PMS5003;31189;38.790;-77.084;2023-09-19T13:21:07;9;9;
45440;PMS5003;31189;38.790;-77.084;2023-09-19T13:23:29;10;10;
45440;PMS5003;31189;38.790;-77.084;2023-09-19T13:25:55;12;9;
45440;PMS5003;31189;38.790;-77.084;2023-09-19T13:28:20;10;7;
45440;PMS5003;31189;38.790;-77.084;2023-09-19T13:30:46;15;9;
45440;PMS5003;31189;38.790;-77.084;2023-09-19T13:33:11;10;10;
45440;PMS5003;31189;38.790;-77.084;2023-09-19T13:35:37;10;10;
45440;PMS5003;31189;38.790;-77.084;2023-09-19T13:38:03;11;10;
45440;PMS5003;31189;38.790;-77.084;2023-09-19T13:40:28;7;7;
45440;PMS5003;31189;38.790;-77.084;2023-09-19T13:42:54;8;8;
45440;PMS5003;31189;38.790;-77.084;2023-09-19T13:45:19;9;9;
45440;PMS5003;31189;38.790;-77.084;2023-09-19T13:47:45;7;7;
45440;PMS5003;31189;38.790;-77.084;2023-09-19T13:50:11;9;8;
45440;PMS5003;31189;38.790;-77.084;2023-09-19T13:52:36;7;7;
45440;PMS5003;31189;38.790;-77.084;2023-09-19T13:55:02;8;8;
45440;PMS5003;31189;38.790;-77.084;2023-09-19T13:57:28;10;8;
45440;PMS5003;31189;38.790;-77.084;2023-09-19T13:59:53;8;6;
45440;PMS5003;31189;38.790;-77.084;2023-09-19T14:02:20;11;10;
45440;PMS5003;31189;38.790;-77.084;2023-09-19T14:04:44;8;8;
45440;PMS5003;31189;38.790;-77.084;2023-09-19T14:07:10;7;7;
45440;PMS5003;31189;38.790;-77.084;2023-09-19T14:09:36;8;8;
45440;PMS5003;31189;38.790;-77.084;2023-09-19T14:12:01;10;8;
45440;PMS5003;31189;38.790;-77.084;2023-09-19T14:14:27;10;8;
45440;PMS5003;31189;38.790;-77.084;2023-09-19T14:16:53;8;6;
45440;PMS5003;31189;38.790;-77.084;2023-09-19T14:19:18;9;7;
45440;PMS5003;31189;38.790;-77.084;2023-09-19T14:21:44;6;6;
45440;PMS5003;31189;38.790;-77.084;2023-09-19T14:24:09;7;7;
45440;PMS5003;31189;38.790;-77.084;2023-09-19T14:26:35;10;8;
45440;PMS5003;31189;38.790;-77.084;2023-09-19T14:29:00;7;6;
45440;PMS5003;31189;38.790;-77.084;2023-09-19T14:31:26;7;7;
45440;PMS5003;31189;38.790;-77.084;2023-09-19T14:33:55;8;8;
45440;PMS5003;31189;38.790;-77.084;2023-09-19T14:36:17;6;6;
45440;PMS5003;31189;38.790;-77.084;2023-09-19T14:38:43;9;9;
45440;PMS5003;31189;38.790;-77.084;2023-09-19T14:41:08;8;7;
45440;PMS5003;31189;38.790;-77.084;2023-09-19T14:43:34;7;7;
45440;PMS5003;31189;38.790;-77.084;2023-09-19T14:46:02;8;8;
45440;PMS5003;31189;38.790;-77.084;2023-09-19T14:48:25;9;7;
45440;PMS5003;31189;38.790;-77.084;2023-09-19T14:50:51;6;6;
45440;PMS5003;31189;38.790;-77.084;2023-09-19T14:53:17;6;6;
45440;PMS5003;31189;38.790;-77.084;2023-09-19T14:55:43;7;7;
45440;PMS5003;31189;38.790;-77.084;2023-09-19T14:58:08;6;6;
45440;PMS5003;31189;38.790;-77.084;2023-09-19T15:00:34;10;7;
45440;PMS5003;31189;38.790;-77.084;2023-09-19T15:02:59;9;7;
45440;PMS5003;31189;38.790;-77.084;2023-09-19T15:05:25;9;7;
45440;PMS5003;31189;38.790;-77.084;2023-09-19T15:07:50;8;8;
45440;PMS5003;31189;38.790;-77.084;2023-09-19T15:10:16;13;7;
45440;PMS5003;31189;38.790;-77.084;2023-09-19T15:12:47;8;8;
45440;PMS5003;31189;38.790;-77.084;2023-09-19T15:15:13;9;9;
45440;PMS5003;31189;38.790;-77.084;2023-09-19T15:17:33;8;7;
45440;PMS5003;31189;38.790;-77.084;2023-09-19T15:20:04;6;6;
45440;PMS5003;31189;38.790;-77.084;2023-09-19T15:22:29;10;8;
45440;PMS5003;31189;38.790;-77.084;2023-09-19T15:24:50;9;9;
45440;PMS5003;31189;38.790;-77.084;2023-09-19T15:27:21;7;7;
45440;PMS5003;31189;38.790;-77.084;2023-09-19T15:29:41;9;8;
45440;PMS5003;31189;38.790;-77.084;2023-09-19T15:32:07;8;7;
45440;PMS5003;31189;38.790;-77.084;2023-09-19T15:34:32;7;7;
45440;PMS5003;31189;38.790;-77.084;2023-09-19T15:36:58;8;6;
45440;PMS5003;31189;38.790;-77.084;2023-09-19T15:39:24;6;6;
45440;PMS5003;31189;38.790;-77.084;2023-09-19T15:41:49;9;6;
45440;PMS5003;31189;38.790;-77.084;2023-09-19T15:44:15;9;7;
45440;PMS5003;31189;38.790;-77.084;2023-09-19T15:46:41;8;7;
45440;PMS5003;31189;38.790;-77.084;2023-09-19T15:49:06;10;7;
45440;PMS5003;31189;38.790;-77.084;2023-09-19T15:51:32;6;5;
45440;PMS5003;31189;38.790;-77.084;2023-09-19T15:53:57;8;7;
45440;PMS5003;31189;38.790;-77.084;2023-09-19T15:56:23;7;6;
45440;PMS5003;31189;38.790;-77.084;2023-09-19T15:58:49;7;6;
45440;PMS5003;31189;38.790;-77.084;2023-09-19T16:01:14;5;5;
45440;PMS5003;31189;38.790;-77.084;2023-09-19T16:03:42;7;7;
45440;PMS5003;31189;38.790;-77.084;2023-09-19T16:08:30;7;6;
45440;PMS5003;31189;38.790;-77.084;2023-09-19T16:13:26;8;7;
45440;PMS5003;31189;38.790;-77.084;2023-09-19T16:15:47;9;6;
45440;PMS5003;31189;38.790;-77.084;2023-09-19T16:18:14;6;6;
45440;PMS5003;31189;38.790;-77.084;2023-09-19T16:20:43;9;6;
45440;PMS5003;31189;38.790;-77.084;2023-09-19T16:23:09;5;5;
45440;PMS5003;31189;38.790;-77.084;2023-09-19T16:25:35;8;7;
45440;PMS5003;31189;38.790;-77.084;2023-09-19T16:27:55;7;6;
45440;PMS5003;31189;38.790;-77.084;2023-09-19T16:30:21;4;4;
45440;PMS5003;31189;38.790;-77.084;2023-09-19T16:32:47;8;7;
45440;PMS5003;31189;38.790;-77.084;2023-09-19T16:35:12;6;6;
45440;PMS5003;31189;38.790;-77.084;2023-09-19T16:37:38;7;7;